createdAt,value
2022-10-30T00:00:28.958Z,18.00
2022-10-30T00:03:04.644Z,18.00
2022-10-30T00:05:35.632Z,18.10
2022-10-30T00:08:07.226Z,18.10
2022-10-30T00:10:38.101Z,18.20
2022-10-30T00:13:09.172Z,18.30
2022-10-30T00:15:44.132Z,18.40
2022-10-30T00:18:18.344Z,18.40
2022-10-30T00:20:49.555Z,18.50
2022-10-30T00:23:20.415Z,18.50
2022-10-30T00:25:51.673Z,18.50
2022-10-30T00:28:24.546Z,18.60
2022-10-30T00:30:55.351Z,18.60
2022-10-30T00:33:31.493Z,18.60
2022-10-30T00:36:06.011Z,18.60
2022-10-30T00:38:36.870Z,18.70
2022-10-30T00:41:08.225Z,18.70
2022-10-30T00:43:43.769Z,18.70
2022-10-30T00:46:22.451Z,18.70
2022-10-30T00:49:00.635Z,18.60
2022-10-30T00:51:33.348Z,18.60
2022-10-30T00:54:07.635Z,18.50
2022-10-30T00:56:41.146Z,18.60
2022-10-30T00:59:16.499Z,18.50
2022-10-30T01:01:52.742Z,18.50
2022-10-30T01:04:30.151Z,18.70
2022-10-30T01:07:02.696Z,18.70
2022-10-30T01:09:34.549Z,18.40
2022-10-30T01:12:05.291Z,18.30
2022-10-30T01:14:38.653Z,18.30
2022-10-30T01:17:39.303Z,18.20
2022-10-30T01:20:26.759Z,18.20
2022-10-30T01:23:08.885Z,18.10
2022-10-30T01:25:55.459Z,18.00
2022-10-30T01:28:38.304Z,18.00
2022-10-30T01:31:20.934Z,17.90
2022-10-30T01:34:08.618Z,17.80
2022-10-30T01:36:48.035Z,17.60
2022-10-30T01:39:24.867Z,17.60
2022-10-30T01:41:55.606Z,17.40
2022-10-30T01:44:30.924Z,17.30
2022-10-30T01:47:20.458Z,17.60
2022-10-30T01:50:16.506Z,17.30
2022-10-30T01:53:00.293Z,17.20
2022-10-30T01:55:41.454Z,17.30
2022-10-30T01:58:21.066Z,17.20
2022-10-30T02:00:57.105Z,17.30
2022-10-30T02:03:29.005Z,17.30
2022-10-30T02:05:59.742Z,17.40
2022-10-30T02:08:37.607Z,17.20
2022-10-30T02:11:08.678Z,17.40
2022-10-30T02:13:42.661Z,17.40
2022-10-30T02:16:14.026Z,17.40
2022-10-30T02:21:40.942Z,17.70
2022-10-30T02:24:12.038Z,17.80
2022-10-30T02:26:42.747Z,17.90
2022-10-30T02:29:14.448Z,17.90
2022-10-30T02:31:45.197Z,17.90
2022-10-30T02:34:16.914Z,17.90
2022-10-30T02:36:50.267Z,17.90
2022-10-30T02:39:22.893Z,17.80
2022-10-30T02:41:53.676Z,17.80
2022-10-30T02:44:24.376Z,18.00
2022-10-30T02:46:55.141Z,17.70
2022-10-30T02:49:27.001Z,17.60
2022-10-30T02:52:00.450Z,17.50
2022-10-30T02:54:31.208Z,17.40
2022-10-30T02:57:03.550Z,17.30
2022-10-30T02:59:34.335Z,17.20
2022-10-30T03:02:05.085Z,17.10
2022-10-30T03:04:35.862Z,17.00
2022-10-30T03:07:09.266Z,16.80
2022-10-30T03:09:40.084Z,16.70
2022-10-30T03:12:12.512Z,16.70
2022-10-30T03:14:43.285Z,16.60
2022-10-30T03:17:13.970Z,16.60
2022-10-30T03:19:46.594Z,16.50
2022-10-30T03:22:19.887Z,16.50
2022-10-30T03:24:50.633Z,16.50
2022-10-30T03:27:21.396Z,16.40
2022-10-30T03:29:52.311Z,16.40
2022-10-30T03:35:13.793Z,16.30
2022-10-30T03:37:48.562Z,16.20
2022-10-30T03:40:19.600Z,16.10
2022-10-30T03:42:50.405Z,16.00
2022-10-30T03:45:22.400Z,16.00
2022-10-30T03:47:54.454Z,16.00
2022-10-30T03:50:25.263Z,15.90
2022-10-30T03:53:01.243Z,15.80
2022-10-30T03:55:32.027Z,15.80
2022-10-30T03:58:02.773Z,15.70
2022-10-30T04:00:33.680Z,15.70
2022-10-30T04:03:04.797Z,15.70
2022-10-30T04:05:36.640Z,15.70
2022-10-30T04:08:14.274Z,15.70
2022-10-30T04:10:49.251Z,15.70
2022-10-30T04:13:21.446Z,15.60
2022-10-30T04:15:56.309Z,15.50
2022-10-30T04:18:31.119Z,15.50
2022-10-30T04:21:02.927Z,15.40
2022-10-30T04:23:36.678Z,15.80
2022-10-30T04:26:07.721Z,15.30
2022-10-30T04:28:38.747Z,15.30
2022-10-30T04:31:09.635Z,15.20
2022-10-30T04:33:41.297Z,15.20
2022-10-30T04:36:12.394Z,15.10
2022-10-30T04:38:46.086Z,15.10
2022-10-30T04:41:17.087Z,15.10
2022-10-30T04:43:47.852Z,15.00
2022-10-30T04:46:20.281Z,15.30
2022-10-30T04:48:51.009Z,14.90
2022-10-30T04:51:21.717Z,14.90
2022-10-30T04:53:55.750Z,14.90
2022-10-30T04:56:26.533Z,14.90
2022-10-30T04:58:57.234Z,14.80
2022-10-30T05:01:28.173Z,14.80
2022-10-30T05:03:59.424Z,14.80
2022-10-30T05:06:32.587Z,14.70
2022-10-30T05:09:07.885Z,14.70
2022-10-30T05:11:38.644Z,14.70
2022-10-30T05:14:09.421Z,14.70
2022-10-30T05:16:40.325Z,14.70
2022-10-30T05:19:11.074Z,14.60
2022-10-30T05:21:43.650Z,14.60
2022-10-30T05:24:17.050Z,14.60
2022-10-30T05:26:49.412Z,14.60
2022-10-30T05:29:22.056Z,14.50
2022-10-30T05:31:55.127Z,14.50
2022-10-30T05:34:26.017Z,14.50
2022-10-30T05:36:56.738Z,14.50
2022-10-30T05:39:30.767Z,14.40
2022-10-30T05:42:02.518Z,14.30
2022-10-30T05:44:58.648Z,14.30
2022-10-30T05:47:23.977Z,14.30
2022-10-30T05:49:54.705Z,14.30
2022-10-30T05:52:25.484Z,14.30
2022-10-30T05:55:00.142Z,14.40
2022-10-30T05:57:33.118Z,14.40
2022-10-30T06:00:03.811Z,14.40
2022-10-30T06:02:35.067Z,14.40
2022-10-30T06:05:06.100Z,14.40
2022-10-30T06:07:36.959Z,14.40
2022-10-30T06:10:11.670Z,14.30
2022-10-30T06:12:42.917Z,14.30
2022-10-30T06:15:13.795Z,14.30
2022-10-30T06:17:46.702Z,14.30
2022-10-30T06:20:17.617Z,14.20
2022-10-30T06:22:57.309Z,14.20
2022-10-30T06:25:34.110Z,14.20
2022-10-30T06:28:08.993Z,14.20
2022-10-30T06:30:40.083Z,14.20
2022-10-30T06:33:12.516Z,14.30
2022-10-30T06:35:43.270Z,14.30
2022-10-30T06:38:16.354Z,14.30
2022-10-30T06:40:51.755Z,14.30
2022-10-30T06:43:22.454Z,14.30
2022-10-30T06:45:53.177Z,14.30
2022-10-30T06:48:25.405Z,14.30
2022-10-30T06:50:59.655Z,14.30
2022-10-30T06:53:30.557Z,14.40
2022-10-30T06:56:06.282Z,14.40
2022-10-30T06:58:39.195Z,14.30
2022-10-30T07:01:10.323Z,14.30
2022-10-30T07:03:41.415Z,14.30
2022-10-30T07:06:12.395Z,14.30
2022-10-30T07:08:43.247Z,14.30
2022-10-30T07:11:16.769Z,14.30
2022-10-30T07:13:47.540Z,14.30
2022-10-30T07:16:18.286Z,14.30
2022-10-30T07:18:51.437Z,14.30
2022-10-30T07:21:24.060Z,14.30
2022-10-30T07:23:56.959Z,14.30
2022-10-30T07:26:30.303Z,14.40
2022-10-30T07:29:01.186Z,14.40
2022-10-30T07:31:42.362Z,14.50
2022-10-30T07:34:21.583Z,14.50
2022-10-30T07:36:52.318Z,14.60
2022-10-30T07:39:23.390Z,14.60
2022-10-30T07:41:59.352Z,14.60
2022-10-30T07:44:30.106Z,14.70
2022-10-30T07:47:00.834Z,14.70
2022-10-30T07:49:31.497Z,14.80
2022-10-30T07:52:02.320Z,14.80
2022-10-30T07:54:34.355Z,14.90
2022-10-30T07:57:07.998Z,14.90
2022-10-30T07:59:39.090Z,15.00
2022-10-30T08:02:12.093Z,15.10
2022-10-30T08:04:43.182Z,15.20
2022-10-30T08:07:14.002Z,15.30
2022-10-30T08:09:44.773Z,15.40
2022-10-30T08:12:18.148Z,15.50
2022-10-30T08:14:49.292Z,15.60
2022-10-30T08:17:20.428Z,15.70
2022-10-30T08:19:51.662Z,15.80
2022-10-30T08:22:24.853Z,15.90
2022-10-30T08:25:00.401Z,16.00
2022-10-30T08:27:33.791Z,16.30
2022-10-30T08:30:09.733Z,16.40
2022-10-30T08:32:42.836Z,16.50
2022-10-30T08:35:19.894Z,16.60
2022-10-30T08:38:03.329Z,16.80
2022-10-30T08:40:35.406Z,16.90
2022-10-30T08:43:08.744Z,17.00
2022-10-30T08:45:39.807Z,16.80
2022-10-30T08:48:14.060Z,17.20
2022-10-30T08:50:45.321Z,17.40
2022-10-30T08:53:18.092Z,17.50
2022-10-30T08:55:48.836Z,17.50
2022-10-30T08:58:22.231Z,17.60
2022-10-30T09:00:57.191Z,17.70
2022-10-30T09:03:33.243Z,17.70
2022-10-30T09:06:04.416Z,17.90
2022-10-30T09:08:44.523Z,17.90
2022-10-30T09:11:24.561Z,18.20
2022-10-30T09:14:32.531Z,18.10
2022-10-30T09:17:11.464Z,18.30
2022-10-30T09:19:53.165Z,18.20
2022-10-30T09:22:32.871Z,18.30
2022-10-30T09:25:18.861Z,18.70
2022-10-30T09:28:01.276Z,18.50
2022-10-30T09:31:17.661Z,18.60
2022-10-30T09:33:51.449Z,18.90
2022-10-30T09:36:22.543Z,18.90
2022-10-30T09:38:55.478Z,18.90
2022-10-30T09:41:42.447Z,18.90
2022-10-30T09:44:28.406Z,19.00
2022-10-30T09:47:20.748Z,19.10
2022-10-30T09:50:06.482Z,19.20
2022-10-30T09:52:45.371Z,19.40
2022-10-30T09:55:28.067Z,19.50
2022-10-30T09:58:06.676Z,19.60
2022-10-30T10:00:42.405Z,19.60
2022-10-30T10:03:30.271Z,19.70
2022-10-30T10:06:04.890Z,19.80
2022-10-30T10:08:40.471Z,19.90
2022-10-30T10:11:15.399Z,20.00
2022-10-30T10:13:55.208Z,20.00
2022-10-30T10:16:32.333Z,20.10
2022-10-30T10:19:13.011Z,20.10
2022-10-30T10:21:48.121Z,20.20
2022-10-30T10:24:23.610Z,20.30
2022-10-30T10:26:59.666Z,20.40
2022-10-30T10:29:47.018Z,20.50
2022-10-30T10:32:48.907Z,20.50
2022-10-30T10:35:39.135Z,20.60
2022-10-30T10:38:20.227Z,20.60
2022-10-30T10:40:59.151Z,20.70
2022-10-30T10:43:41.574Z,20.90
2022-10-30T10:46:30.034Z,20.90
2022-10-30T10:49:13.530Z,21.10
2022-10-30T10:51:53.463Z,21.00
2022-10-30T10:54:30.122Z,21.00
2022-10-30T10:57:02.670Z,21.20
2022-10-30T10:59:39.806Z,21.30
2022-10-30T11:02:31.642Z,21.40
2022-10-30T11:05:09.665Z,21.50
2022-10-30T11:07:49.707Z,21.80
2022-10-30T11:10:26.346Z,21.60
2022-10-30T11:12:57.523Z,21.70
2022-10-30T11:15:38.248Z,21.80
2022-10-30T11:18:10.713Z,21.80
2022-10-30T11:20:47.211Z,21.90
2022-10-30T11:23:38.698Z,22.00
2022-10-30T11:26:38.260Z,21.80
2022-10-30T11:29:16.049Z,22.30
2022-10-30T11:31:48.010Z,22.40
2022-10-30T11:34:34.367Z,22.40
2022-10-30T11:37:06.208Z,22.50
2022-10-30T11:39:39.780Z,22.70
2022-10-30T11:42:17.149Z,22.80
2022-10-30T11:44:54.365Z,22.80
2022-10-30T11:47:36.387Z,23.00
2022-10-30T11:50:10.700Z,23.00
2022-10-30T11:52:44.841Z,23.10
2022-10-30T11:55:22.575Z,23.10
2022-10-30T11:57:58.898Z,23.20
2022-10-30T12:00:33.258Z,23.20
2022-10-30T12:03:04.617Z,23.20
2022-10-30T12:05:43.584Z,23.30
2022-10-30T12:08:22.305Z,23.30
2022-10-30T12:11:04.989Z,23.50
2022-10-30T12:13:43.208Z,23.40
2022-10-30T12:16:21.152Z,23.40
2022-10-30T12:18:59.423Z,23.50
2022-10-30T12:21:33.026Z,23.70
2022-10-30T12:24:09.498Z,23.50
2022-10-30T12:26:43.622Z,23.60
2022-10-30T12:29:19.790Z,24.00
2022-10-30T12:31:57.469Z,23.70
2022-10-30T12:34:40.763Z,24.00
2022-10-30T12:37:19.313Z,24.30
2022-10-30T12:40:02.841Z,23.90
2022-10-30T12:42:40.536Z,23.90
2022-10-30T12:45:17.787Z,23.90
2022-10-30T12:47:54.363Z,23.80
2022-10-30T12:50:29.587Z,23.80
2022-10-30T12:53:08.342Z,23.70
2022-10-30T12:55:42.262Z,23.70
2022-10-30T12:58:23.989Z,23.70
2022-10-30T13:00:59.718Z,23.60
2022-10-30T13:03:37.445Z,23.50
2022-10-30T13:06:17.727Z,23.50
2022-10-30T13:09:00.368Z,23.50
2022-10-30T13:11:41.754Z,23.60
2022-10-30T13:14:20.032Z,23.40
2022-10-30T13:16:53.294Z,23.40
2022-10-30T13:19:24.748Z,23.60
2022-10-30T13:22:01.945Z,23.70
2022-10-30T13:24:45.792Z,23.50
2022-10-30T13:27:21.749Z,23.50
2022-10-30T13:30:02.636Z,23.50
2022-10-30T13:32:42.413Z,23.40
2022-10-30T13:35:25.395Z,23.40
2022-10-30T13:38:02.789Z,23.40
2022-10-30T13:40:40.674Z,23.40
2022-10-30T13:43:25.338Z,23.30
2022-10-30T13:46:29.833Z,23.30
2022-10-30T13:49:21.679Z,23.40
2022-10-30T13:51:58.035Z,23.30
2022-10-30T13:54:33.402Z,23.30
2022-10-30T13:57:11.573Z,23.20
2022-10-30T13:59:56.042Z,23.20
2022-10-30T14:02:42.261Z,23.20
2022-10-30T14:05:25.556Z,23.20
2022-10-30T14:08:05.221Z,23.10
2022-10-30T14:10:53.383Z,23.20
2022-10-30T14:13:29.403Z,22.90
2022-10-30T14:16:04.071Z,22.90
2022-10-30T14:19:04.997Z,22.80
2022-10-30T14:21:42.449Z,22.80
2022-10-30T14:24:19.998Z,22.80
2022-10-30T14:26:56.132Z,22.80
2022-10-30T14:29:44.856Z,22.70
2022-10-30T14:32:51.774Z,22.70
2022-10-30T14:35:41.550Z,22.60
2022-10-30T14:38:37.438Z,22.50
2022-10-30T14:41:41.993Z,22.60
2022-10-30T14:44:43.431Z,22.50
2022-10-30T14:47:32.427Z,22.40
2022-10-30T14:50:09.372Z,22.40
2022-10-30T14:52:49.413Z,22.40
2022-10-30T14:55:30.875Z,22.30
2022-10-30T14:58:22.713Z,22.30
2022-10-30T15:00:55.297Z,22.20
2022-10-30T15:03:42.053Z,22.30
2022-10-30T15:06:25.847Z,22.00
2022-10-30T15:09:13.489Z,22.00
2022-10-30T15:12:12.400Z,21.90
2022-10-30T15:14:54.858Z,21.80
2022-10-30T15:17:31.644Z,21.70
2022-10-30T15:20:05.574Z,21.60
2022-10-30T15:22:37.600Z,21.40
2022-10-30T15:25:19.342Z,21.30
2022-10-30T15:27:53.030Z,21.20
2022-10-30T15:30:28.235Z,21.10
2022-10-30T15:32:59.383Z,21.40
2022-10-30T15:35:31.599Z,21.00
2022-10-30T15:38:07.954Z,20.90
2022-10-30T15:40:42.791Z,20.80
2022-10-30T15:43:16.803Z,20.60
2022-10-30T15:45:50.061Z,20.60
2022-10-30T15:48:26.294Z,20.40
2022-10-30T15:51:01.626Z,20.40
2022-10-30T15:53:40.720Z,20.20
2022-10-30T15:56:22.649Z,20.20
2022-10-30T15:58:58.070Z,20.00
2022-10-30T16:01:32.733Z,19.90
2022-10-30T16:04:03.851Z,19.90
2022-10-30T16:06:35.002Z,19.70
2022-10-30T16:09:07.164Z,19.60
2022-10-30T16:11:40.658Z,19.60
2022-10-30T16:14:15.308Z,19.50
2022-10-30T16:16:47.625Z,19.40
2022-10-30T16:19:28.033Z,19.30
2022-10-30T16:22:01.374Z,19.20
2022-10-30T16:24:35.613Z,19.10
2022-10-30T16:27:18.157Z,19.10
2022-10-30T16:29:50.353Z,19.30
2022-10-30T16:32:24.050Z,19.20
2022-10-30T16:34:59.611Z,19.30
2022-10-30T16:37:38.589Z,19.70
2022-10-30T16:40:15.819Z,19.50
2022-10-30T16:42:54.764Z,19.60
2022-10-30T16:45:48.079Z,19.60
2022-10-30T16:48:28.121Z,19.60
2022-10-30T16:51:06.462Z,19.60
2022-10-30T16:53:37.317Z,19.70
2022-10-30T16:56:21.809Z,19.70
2022-10-30T16:58:56.886Z,19.60
2022-10-30T17:01:31.160Z,19.70
2022-10-30T17:04:05.189Z,19.60
2022-10-30T17:06:43.197Z,19.60
2022-10-30T17:09:24.687Z,19.60
2022-10-30T17:12:10.283Z,19.50
2022-10-30T17:14:52.962Z,19.50
2022-10-30T17:17:30.830Z,19.50
2022-10-30T17:20:08.068Z,19.50
2022-10-30T17:22:39.441Z,19.50
2022-10-30T17:25:30.378Z,19.50
2022-10-30T17:28:02.570Z,19.40
2022-10-30T17:30:41.265Z,19.60
2022-10-30T17:33:29.220Z,19.30
2022-10-30T17:36:00.141Z,19.30
2022-10-30T17:38:31.135Z,19.30
2022-10-30T17:41:05.367Z,19.20
2022-10-30T17:43:49.476Z,19.20
2022-10-30T17:46:22.982Z,19.10
2022-10-30T17:48:55.913Z,19.10
2022-10-30T17:51:31.774Z,19.10
2022-10-30T17:54:02.654Z,19.10
2022-10-30T17:56:35.835Z,19.10
2022-10-30T17:59:07.815Z,19.10
2022-10-30T18:01:41.277Z,19.10
2022-10-30T18:04:20.867Z,19.00
2022-10-30T18:06:52.540Z,19.00
2022-10-30T18:09:24.615Z,18.90
2022-10-30T18:11:55.609Z,19.00
2022-10-30T18:14:26.503Z,18.90
2022-10-30T18:16:59.954Z,18.90
2022-10-30T18:19:30.768Z,18.90
2022-10-30T18:22:01.833Z,19.10
2022-10-30T18:24:34.478Z,18.80
2022-10-30T18:27:05.398Z,18.80
2022-10-30T18:29:36.455Z,18.80
2022-10-30T18:32:13.058Z,19.20
2022-10-30T18:34:44.057Z,18.70
2022-10-30T18:37:17.512Z,18.80
2022-10-30T18:39:48.343Z,18.80
2022-10-30T18:42:19.086Z,18.70
2022-10-30T18:44:49.891Z,18.70
2022-10-30T18:47:23.193Z,18.60
2022-10-30T18:49:56.731Z,18.60
2022-10-30T18:52:27.459Z,18.60
2022-10-30T18:54:58.628Z,18.90
2022-10-30T18:57:29.455Z,18.60
2022-10-30T19:00:00.780Z,18.50
2022-10-30T19:02:36.878Z,18.50
2022-10-30T19:05:21.037Z,18.50
2022-10-30T19:07:55.235Z,18.40
2022-10-30T19:10:29.431Z,18.40
2022-10-30T19:13:11.915Z,18.30
2022-10-30T19:15:45.309Z,18.30
2022-10-30T19:18:19.887Z,18.30
2022-10-30T19:21:03.759Z,18.50
2022-10-30T19:23:35.867Z,18.20
2022-10-30T19:29:00.509Z,18.20
2022-10-30T19:31:31.218Z,18.20
2022-10-30T19:34:07.480Z,18.30
2022-10-30T19:36:40.123Z,18.20
2022-10-30T19:39:16.988Z,18.20
2022-10-30T19:41:48.002Z,18.20
2022-10-30T19:44:18.789Z,18.20
2022-10-30T19:46:49.639Z,18.60
2022-10-30T19:49:23.653Z,18.20
2022-10-30T19:51:54.493Z,18.20
2022-10-30T19:54:25.395Z,18.10
2022-10-30T19:56:56.292Z,18.20
2022-10-30T19:59:29.758Z,18.10
2022-10-30T20:02:01.737Z,18.10
2022-10-30T20:04:36.370Z,18.00
2022-10-30T20:07:08.417Z,18.00
2022-10-30T20:09:39.198Z,18.40
2022-10-30T20:12:10.488Z,18.10
2022-10-30T20:14:42.866Z,18.00
2022-10-30T20:17:14.275Z,17.90
2022-10-30T20:19:47.894Z,17.90
2022-10-30T20:22:23.237Z,17.90
2022-10-30T20:24:58.051Z,18.00
2022-10-30T20:27:28.965Z,17.90
2022-10-30T20:29:59.953Z,17.80
2022-10-30T20:32:31.040Z,17.70
2022-10-30T20:35:08.856Z,17.70
2022-10-30T20:37:42.904Z,17.80
2022-10-30T20:40:17.788Z,17.70
2022-10-30T20:42:50.944Z,17.60
2022-10-30T20:45:24.914Z,17.60
2022-10-30T20:47:58.749Z,17.60
2022-10-30T20:50:32.304Z,17.50
2022-10-30T20:53:03.033Z,17.50
2022-10-30T20:55:37.354Z,17.50
2022-10-30T20:58:08.919Z,17.50
2022-10-30T21:00:40.033Z,17.40
2022-10-30T21:03:11.293Z,17.30
2022-10-30T21:05:46.319Z,17.20
2022-10-30T21:08:17.564Z,17.20
2022-10-30T21:10:49.752Z,17.20
2022-10-30T21:13:23.012Z,17.10
2022-10-30T21:15:55.122Z,17.10
2022-10-30T21:18:25.866Z,17.10
2022-10-30T21:21:03.116Z,17.10
2022-10-30T21:23:33.935Z,17.10
2022-10-30T21:26:05.448Z,17.10
2022-10-30T21:28:36.414Z,17.10
2022-10-30T21:31:09.619Z,17.40
2022-10-30T21:33:41.332Z,17.10
2022-10-30T21:36:16.668Z,17.00
2022-10-30T21:38:47.551Z,16.90
2022-10-30T21:41:26.369Z,16.90
2022-10-30T21:43:59.624Z,16.80
2022-10-30T21:46:32.617Z,16.70
2022-10-30T21:49:06.929Z,16.60
2022-10-30T21:51:42.129Z,16.60
2022-10-30T21:54:12.950Z,16.50
2022-10-30T21:56:44.129Z,16.40
2022-10-30T21:59:16.832Z,16.30
2022-10-30T22:01:47.743Z,16.30
2022-10-30T22:04:20.037Z,16.20
2022-10-30T22:06:54.898Z,16.10
2022-10-30T22:09:25.826Z,16.00
2022-10-30T22:11:56.714Z,16.00
2022-10-30T22:14:29.412Z,15.90
2022-10-30T22:17:00.578Z,16.30
2022-10-30T22:19:31.341Z,15.80
2022-10-30T22:22:05.418Z,15.80
2022-10-30T22:24:36.756Z,16.20
2022-10-30T22:27:08.026Z,15.70
2022-10-30T22:29:41.302Z,15.60
2022-10-30T22:32:13.389Z,15.60
2022-10-30T22:34:45.416Z,16.10
2022-10-30T22:37:18.773Z,15.70
2022-10-30T22:39:49.535Z,15.70
2022-10-30T22:42:20.311Z,15.80
2022-10-30T22:44:51.081Z,15.70
2022-10-30T22:47:21.793Z,15.70
2022-10-30T22:49:52.622Z,15.70
2022-10-30T22:52:27.701Z,15.60
2022-10-30T22:54:58.495Z,15.70
2022-10-30T22:57:29.247Z,15.60
2022-10-30T23:00:00.037Z,15.60
2022-10-30T23:02:30.798Z,15.90
2022-10-30T23:05:01.578Z,15.60
2022-10-30T23:07:38.704Z,15.60
2022-10-30T23:10:12.139Z,15.30
2022-10-30T23:12:43.277Z,15.60
2022-10-30T23:15:14.598Z,15.60
2022-10-30T23:17:46.070Z,15.50
2022-10-30T23:20:17.447Z,15.50
2022-10-30T23:22:52.292Z,15.50
2022-10-30T23:25:24.873Z,15.80
2022-10-30T23:27:56.281Z,15.60
2022-10-30T23:30:27.156Z,15.60
2022-10-30T23:32:58.186Z,15.60
2022-10-30T23:35:29.173Z,15.60
2022-10-30T23:38:02.486Z,15.70
2022-10-30T23:40:33.260Z,16.00
2022-10-30T23:43:04.501Z,15.60
2022-10-30T23:45:35.609Z,15.60
2022-10-30T23:48:07.513Z,16.00
2022-10-30T23:50:38.444Z,15.60
2022-10-30T23:53:12.146Z,15.60
2022-10-30T23:55:42.990Z,15.80
2022-10-30T23:58:13.745Z,15.70
